Latest Coastal Weather Observations for Lombadina

IDW60701

Issued at 10:23 am WST Thursday 23 February 2017 (issued every 10 minutes, with the page automatically refreshed every 10 minutes)

About coastal observations | Map of coastal stations | Coastal observations for WA | Marine services | Other Formats
Station Details ID: 503016 Name: LOMBADINA AIRSTRIP Lat: -16.52 Lon: 122.92 Height: 42.0 m
Data from the previous 72 hours. | See also: Recent months for locations in Western Australia
Date/Time
WST
Temp
°C
Wind Pressure Rain since
9am
mm
Weather Cloud Vis
km
Sea
Height
m
Swell
Dir  Spd
kts
Gust
kts
hPa Trend Height
m
Period
s
Dir
23/10:00am 32.8 SW 4 8 1011.1 - 0.0 - Partly cloudy 10 - - - -
23/09:30am 31.0 SW 6 11 1011.2 - 0.0 - Partly cloudy 10 - - - -
23/09:00am 31.6 SSW 4 6 1011.3 - 0.0 - - 10 - - - -
23/08:30am 30.9 WSW 4 6 1011.3 - 0.0 - - 10 - - - -
23/08:00am 30.2 SW 3 6 1011.3 - 0.0 - - 10 - - - -
23/07:30am 28.8 SW 4 8 1011.2 - 0.0 - - 10 - - - -
23/07:00am 27.9 SSW 3 5 1011.0 - 0.0 - - 10 - - - -
23/06:30am 26.8 SSW 3 6 1010.8 - 0.0 - - 10 - - - -
23/06:00am 26.1 SW 3 7 1010.4 - 0.0 - - 10 - - - -
23/05:30am 26.2 SW 4 7 1010.4 - 0.0 - - 10 - - - -
23/05:00am 26.2 SW 3 5 1010.2 - 0.0 - - 10 - - - -
23/04:30am 26.1 SW 2 5 1010.0 - 0.0 - - 10 - - - -
23/04:00am 26.0 SSW 2 4 1009.8 - 0.0 - - 10 - - - -
23/03:30am 26.1 SW 2 4 1009.5 - 0.0 - - 10 - - - -
23/03:00am 26.3 SW 2 4 1009.7 - 0.0 - - 10 - - - -
23/02:30am 26.3 SW 2 4 1009.6 - 0.0 - - 10 - - - -
23/02:00am 26.5 SW 2 4 1009.9 - 0.0 - - 10 - - - -
23/01:30am 26.6 SW 3 4 1010.2 - 0.0 - - 10 - - - -
23/01:00am 26.8 SW 2 4 1010.4 - 0.0 - - 10 - - - -
23/12:30am 26.8 WSW 2 3 1010.8 - 0.0 - - 10 - - - -
23/12:00am 27.1 SW 2 3 1011.4 - 0.0 - - 10 - - - -
 
Date/Time
WST
Temp
°C
Wind Pressure Rain since
9am
mm
Weather Cloud Vis
km
Sea
Height
m
Swell
Dir  Spd
kts
Gust
kts
hPa Trend Height
m
Period
s
Dir
22/11:30pm 27.6 WSW 3 5 1011.7 - 0.0 - - 10 - - - -
22/11:00pm 27.8 SW 2 5 1012.0 - 0.0 - - 10 - - - -
22/10:30pm 27.8 WSW 3 5 1012.1 - 0.0 - - 10 - - - -
22/10:00pm 27.8 W 3 5 1012.1 - 0.0 - - 10 - - - -
22/09:30pm 27.8 WSW 2 4 1012.2 - 0.0 - Partly cloudy 10 - - - -
22/09:00pm 27.9 WSW 3 5 1012.1 - 0.0 - - 10 - - - -
22/08:30pm 27.8 WSW 3 5 1011.5 - 0.0 - - 10 - - - -
22/08:00pm 28.0 WSW 3 4 1011.4 - 0.0 - - 10 - - - -
22/07:30pm 28.1 W 3 5 1010.9 - 0.0 - - 10 - - - -
22/07:00pm 28.4 WSW 3 5 1010.3 - 0.0 - - 10 - - - -
22/06:30pm 28.6 WSW 4 8 1009.9 - 0.0 - - 10 - - - -
22/06:00pm 29.1 W 5 9 1009.7 - 0.0 - - 10 - - - -
22/05:30pm 29.4 W 7 12 1009.5 - 0.0 - Partly cloudy 10 - - - -
22/05:00pm 30.0 W 8 12 1009.5 - 0.0 - Partly cloudy 10 - - - -
22/04:30pm 30.6 W 7 13 1009.0 - 0.0 - - 10 - - - -
22/04:00pm 31.2 W 7 11 1009.2 - 0.0 - - 10 - - - -
22/03:30pm 31.1 W 7 12 1009.5 - 0.0 - Partly cloudy 10 - - - -
22/03:00pm 31.2 W 8 15 1009.5 - 0.0 - - 10 - - - -
22/02:30pm 31.8 W 9 14 1009.9 - 0.0 - - 10 - - - -
22/02:00pm 32.0 WNW 7 12 1010.1 - 0.0 - - 10 - - - -
22/01:30pm 32.0 W 8 12 1010.3 - 0.0 - - 10 - - - -
22/01:00pm 32.0 WNW 10 16 1010.6 - 0.0 - - 10 - - - -
22/12:30pm 31.9 WNW 9 16 1011.0 - 0.0 - - 10 - - - -
22/12:00pm 31.6 W 7 13 1011.3 - 0.0 - Mostly clear 10 - - - -
22/11:30am 31.5 W 8 14 1011.7 - 0.0 - Partly cloudy 10 - - - -
22/11:00am 32.3 WSW 7 13 1011.9 - 0.0 - Partly cloudy 10 - - - -
22/10:30am 32.0 WSW 6 12 1012.2 - 0.0 - Partly cloudy 10 - - - -
22/10:00am 31.0 W 7 11 1012.6 - 0.0 - Partly cloudy 10 - - - -
22/09:30am 30.6 WSW 5 9 1012.7 - 0.0 - Partly cloudy 10 - - - -
22/09:00am 30.1 W 5 9 1012.8 - 0.2 - Partly cloudy 10 - - - -
22/08:30am 29.5 W 5 9 1012.8 - 0.2 - Partly cloudy 10 - - - -
22/08:00am 29.4 W 4 9 1012.5 - 0.2 - Partly cloudy 10 - - - -
22/07:30am 28.9 SW 1 4 1012.2 - 0.2 - Partly cloudy 10 - - - -
22/07:00am 28.6 WSW 2 4 1012.0 - 0.2 - Partly cloudy 10 - - - -
22/06:30am 27.6 CALM 0 0 1011.8 - 0.2 - Partly cloudy 10 - - - -
22/06:00am 26.9 CALM 0 0 1011.5 - 0.2 - Mostly clear 10 - - - -
22/05:30am 27.3 WSW 1 3 1011.0 - 0.2 - - 10 - - - -
22/05:00am 27.3 W 2 5 1010.9 - 0.2 - Partly cloudy 10 - - - -
22/04:30am 27.3 WSW 3 6 1010.9 - 0.2 - Partly cloudy 10 - - - -
22/04:00am 27.3 W 2 7 1010.7 - 0.2 - Partly cloudy 10 - - - -
22/03:30am 27.3 W 3 5 1010.3 - 0.2 - Partly cloudy 10 - - - -
22/03:00am 27.3 WNW 3 5 1010.0 - 0.2 - - 10 - - - -
22/02:30am 26.9 W 2 4 1009.9 - 0.2 - - 10 - - - -
22/02:00am 26.7 W 2 4 1010.0 - 0.2 - - 10 - - - -
22/01:30am 26.6 WNW 2 4 1010.1 - 0.2 - - 10 - - - -
22/01:00am 26.3 W 1 3 1010.4 - 0.2 - - 10 - - - -
22/12:30am 26.5 CALM 0 2 1010.8 - 0.2 - - 10 - - - -
22/12:00am 26.8 WSW 2 4 1011.0 - 0.2 - - 10 - - - -
 
Date/Time
WST
Temp
°C
Wind Pressure Rain since
9am
mm
Weather Cloud Vis
km
Sea
Height
m
Swell
Dir  Spd
kts
Gust
kts
hPa Trend Height
m
Period
s
Dir
21/11:30pm 27.4 SW 2 4 1011.3 - 0.2 - - 10 - - - -
21/11:00pm 27.6 W 2 4 1011.3 - 0.2 - - 10 - - - -
21/10:30pm 27.0 CALM 0 0 1011.6 - 0.2 - - 10 - - - -
21/10:00pm 27.5 W 1 3 1011.5 - 0.2 - - 10 - - - -
21/09:30pm 27.6 W 2 4 1011.4 - 0.2 - - 10 - - - -
21/09:00pm 27.8 W 2 4 1011.0 - 0.2 - - 10 - - - -
21/08:30pm 28.1 W 3 7 1010.8 - 0.2 - - 10 - - - -
21/08:00pm 28.0 W 2 4 1010.7 - 0.2 - - 10 - - - -
21/07:30pm 28.1 NW 3 4 1010.7 - 0.2 - - 10 - - - -
21/07:00pm 28.2 NW 1 3 1010.6 - 0.2 - - 10 - - - -
21/06:30pm 28.8 WNW 3 5 1010.1 - 0.2 - - 10 - - - -
21/06:00pm 29.2 NW 5 8 1009.6 - 0.2 - - 10 - - - -
21/05:30pm 29.7 NW 5 9 1009.4 - 0.2 - - 10 - - - -
21/05:00pm 30.0 NW 7 11 1009.2 - 0.2 - Partly cloudy 10 - - - -
21/04:30pm 30.2 NW 6 10 1009.1 - 0.2 - - 10 - - - -
21/04:00pm 30.5 NW 7 12 1009.0 - 0.2 - - 10 - - - -
21/03:30pm 30.8 NW 7 11 1008.8 - 0.2 - - 10 - - - -
21/03:00pm 30.3 NW 7 13 1009.0 - 0.2 - Mostly clear 10 - - - -
21/02:30pm 30.2 NW 7 12 1009.0 - 0.2 - - 10 - - - -
21/02:00pm 29.7 WNW 7 10 1009.2 - 0.2 - Partly cloudy 10 - - - -
21/01:30pm 29.0 NNW 5 11 1009.5 - 0.2 - Partly cloudy 10 - - - -
21/01:00pm 29.8 NW 7 12 1009.8 - 0.0 - Partly cloudy 10 - - - -
21/12:30pm 31.2 WNW 7 12 1010.0 - 0.0 - - 10 - - - -
21/12:00pm 30.0 NW 5 8 1010.6 - 0.0 - Mostly clear 10 - - - -
21/11:30am 29.9 NNW 6 8 1011.0 - 0.0 - Partly cloudy 10 - - - -
21/11:00am 30.0 ENE 2 5 1011.2 - 0.0 - Partly cloudy 10 - - - -
21/10:30am 30.1 ENE 2 5 1011.6 - 0.0 - Partly cloudy 10 - - - -
21/10:00am 29.7 E 2 4 1011.9 - 0.0 - Partly cloudy 10 - - - -
21/09:30am 30.6 ENE 1 3 1012.1 - 0.0 - Partly cloudy 10 - - - -
21/09:00am 29.6 CALM 0 3 1012.2 - 0.0 - Partly cloudy 10 - - - -
21/08:30am 28.7 CALM 0 0 1012.1 - 0.0 - Cloudy 10 - - - -
21/08:00am 28.5 S 1 4 1012.0 - 0.0 - - 10 - - - -
21/07:30am 28.4 CALM 0 0 1011.7 - 0.0 - Partly cloudy 10 - - - -
21/07:00am 27.6 CALM 0 0 1011.5 - 0.0 - Partly cloudy 10 - - - -
21/06:30am 27.1 E 1 2 1011.1 - 0.0 - Partly cloudy 10 - - - -
21/06:00am 26.6 ESE 1 3 1010.7 - 0.0 - Cloudy 10 - - - -
21/05:30am 26.7 CALM 0 0 1010.2 - 0.0 - Partly cloudy 10 - - - -
21/05:00am 26.7 CALM 0 0 1009.7 - 0.0 - Cloudy 10 - - - -
21/04:30am 27.0 CALM 0 0 1009.4 - 0.0 - Cloudy 10 - - - -
21/04:00am 26.8 CALM 0 0 1009.3 - 0.0 - Cloudy 10 - - - -
21/03:30am 26.4 CALM 0 0 1009.0 - 0.0 - Partly cloudy 10 - - - -
21/03:00am 26.5 CALM 0 2 1009.0 - 0.0 - - 10 - - - -
21/02:30am 26.9 WSW 1 4 1008.8 - 0.0 - Partly cloudy 10 - - - -
21/02:00am 26.9 CALM 0 2 1008.8 - 0.0 - - 10 - - - -
21/01:30am 26.9 WSW 2 4 1009.1 - 0.0 - Partly cloudy 10 - - - -
21/01:00am 26.9 WSW 2 4 1009.2 - 0.0 - - 10 - - - -
21/12:30am 26.8 SW 2 4 1009.4 - 0.0 - - 10 - - - -
21/12:00am 26.9 WSW 2 4 1009.5 - 0.0 - Mostly clear 10 - - - -
 
Date/Time
WST
Temp
°C
Wind Pressure Rain since
9am
mm
Weather Cloud Vis
km
Sea
Height
m
Swell
Dir  Spd
kts
Gust
kts
hPa Trend Height
m
Period
s
Dir
20/11:30pm 27.2 WSW 2 5 1009.6 - 0.0 - - 10 - - - -
20/11:00pm 27.3 WSW 4 6 1009.9 - 0.0 - - 10 - - - -
20/10:30pm 27.4 WSW 3 5 1010.1 - 0.0 - - 10 - - - -
20/10:00pm 27.5 WSW 3 6 1009.9 - 0.0 - - 10 - - - -
20/09:30pm 27.7 WSW 3 6 1009.9 - 0.0 - - 10 - - - -
20/09:00pm 27.9 WSW 3 5 1009.5 - 0.0 - - 10 - - - -
20/08:30pm 27.9 WSW 4 6 1009.6 - 0.0 - - 10 - - - -
20/08:00pm 28.1 WSW 4 8 1010.0 - 0.0 - - 10 - - - -
20/07:30pm 28.3 WSW 4 8 1009.8 - 0.0 - Partly cloudy 10 - - - -
20/07:00pm 28.4 WSW 5 8 1009.1 - 0.0 - Partly cloudy 10 - - - -
20/06:30pm 28.6 W 5 10 1008.6 - 0.0 - - 10 - - - -
20/06:00pm 28.8 W 7 13 1007.7 - 0.0 - Mostly clear 10 - - - -
20/05:30pm 29.3 WSW 8 15 1007.6 - 0.0 - Partly cloudy 10 - - - -
20/05:00pm 29.7 W 8 12 1007.2 - 0.0 - Partly cloudy 10 - - - -
20/04:30pm 30.1 W 9 17 1007.1 - 0.0 - Partly cloudy 10 - - - -
20/04:00pm 30.3 W 7 12 1006.8 - 0.0 - Partly cloudy 10 - - - -
20/03:30pm 30.9 W 8 13 1006.8 - 0.0 - Partly cloudy 10 - - - -
20/03:00pm 30.5 W 7 12 1006.7 - 0.0 - Mostly clear 10 - - - -
20/02:30pm 31.9 WNW 6 10 1006.9 - 0.0 - Partly cloudy 10 - - - -
20/02:00pm 31.4 W 7 12 1007.0 - 0.0 - Partly cloudy 10 - - - -
20/01:30pm 31.2 W 7 13 1007.2 - 0.0 - Partly cloudy 10 - - - -
20/01:00pm 31.8 W 6 10 1007.5 - 0.0 - Partly cloudy 10 - - - -
20/12:30pm 31.1 WNW 6 11 1007.9 - 0.0 - Partly cloudy 10 - - - -
20/12:00pm 31.1 NW 7 11 1008.2 - 0.0 - Mostly clear 10 - - - -
20/11:30am 31.6 SSE 3 7 1008.6 - 0.0 - - 10 - - - -
20/11:00am 30.7 ENE 4 7 1009.3 - 0.0 - - 10 - - - -
20/10:30am 30.8 ESE 3 6 1009.7 - 0.0 - Partly cloudy 10 - - - -

Other Formats:

Comma delimited format used in spreadsheet applications
http://www.bom.gov.au/fwo/IDW60701/IDW60701.99206.axf

JavaScript Object Notation format (JSON) in row-major order
http://www.bom.gov.au/fwo/IDW60701/IDW60701.99206.json